createdAt,value
2022-11-20T00:04:16.544Z,25.03
2022-11-20T00:09:19.225Z,23.50
2022-11-20T00:14:21.753Z,25.73
2022-11-20T00:19:24.194Z,26.50
2022-11-20T00:24:26.478Z,23.87
2022-11-20T00:29:28.761Z,23.77
2022-11-20T00:34:31.208Z,22.50
2022-11-20T00:39:33.689Z,24.00
2022-11-20T00:44:36.065Z,23.60
2022-11-20T00:49:38.329Z,23.80
2022-11-20T00:54:40.604Z,23.10
2022-11-20T00:59:42.912Z,23.53
2022-11-20T01:04:45.596Z,22.90
2022-11-20T01:09:47.874Z,23.13
2022-11-20T01:14:50.144Z,23.37
2022-11-20T01:19:52.509Z,23.53
2022-11-20T01:24:54.762Z,25.00
2022-11-20T01:30:01.114Z,23.57
2022-11-20T01:35:03.975Z,23.53
2022-11-20T01:40:06.822Z,22.70
2022-11-20T01:45:46.613Z,22.73
2022-11-20T01:50:49.702Z,24.23
2022-11-20T01:55:57.708Z,23.30
2022-11-20T02:01:00.461Z,22.43
2022-11-20T02:06:26.675Z,22.57
2022-11-20T02:11:31.304Z,22.53
2022-11-20T02:16:45.706Z,22.83
2022-11-20T02:21:57.371Z,22.03
2022-11-20T02:27:10.960Z,22.70
2022-11-20T02:32:25.348Z,22.77
2022-11-20T02:37:33.605Z,23.57
2022-11-20T02:42:37.250Z,22.63
2022-11-20T02:47:39.747Z,24.53
2022-11-20T02:52:42.422Z,24.17
2022-11-20T02:57:44.829Z,24.17
2022-11-20T03:02:47.606Z,23.83
2022-11-20T03:07:50.303Z,25.07
2022-11-20T03:12:56.475Z,23.50
2022-11-20T03:17:58.953Z,23.97
2022-11-20T03:23:01.771Z,25.07
2022-11-20T03:28:04.179Z,24.23
2022-11-20T03:33:06.583Z,24.00
2022-11-20T03:38:08.971Z,26.03
2022-11-20T03:43:11.360Z,24.97
2022-11-20T03:48:13.724Z,24.17
2022-11-20T03:53:16.753Z,25.23
2022-11-20T03:58:19.339Z,24.33
2022-11-20T04:03:21.997Z,24.53
2022-11-20T04:08:24.411Z,25.90
2022-11-20T04:13:26.768Z,23.43
2022-11-20T04:18:29.162Z,22.90
2022-11-20T04:23:31.620Z,22.53
2022-11-20T04:28:34.081Z,22.03
2022-11-20T04:33:37.847Z,22.77
2022-11-20T04:38:40.876Z,21.97
2022-11-20T04:43:48.532Z,22.37
2022-11-20T04:48:50.811Z,21.37
2022-11-20T04:53:53.157Z,22.00
2022-11-20T04:58:55.563Z,22.10
2022-11-20T05:03:57.927Z,22.83
2022-11-20T05:09:00.381Z,22.33
2022-11-20T05:14:02.750Z,21.80
2022-11-20T05:19:05.266Z,20.90
2022-11-20T05:24:08.063Z,22.17
2022-11-20T05:29:12.856Z,22.47
2022-11-20T05:34:15.329Z,22.23
2022-11-20T05:39:17.716Z,23.43
2022-11-20T05:44:20.004Z,21.13
2022-11-20T05:49:22.486Z,26.33
2022-11-20T05:54:24.987Z,25.87
2022-11-20T05:59:27.368Z,26.47
2022-11-20T06:04:29.827Z,27.80
2022-11-20T06:09:32.147Z,29.47
2022-11-20T06:14:34.792Z,28.67
2022-11-20T06:19:37.053Z,29.27
2022-11-20T06:24:39.289Z,29.27
2022-11-20T06:29:41.567Z,29.07
2022-11-20T06:34:44.542Z,27.13
2022-11-20T06:39:46.927Z,27.60
2022-11-20T06:44:49.261Z,26.13
2022-11-20T06:49:51.759Z,26.43
2022-11-20T06:54:54.777Z,26.07
2022-11-20T06:59:57.196Z,23.97
2022-11-20T07:04:59.454Z,20.93
2022-11-20T07:10:01.839Z,22.43
2022-11-20T07:15:04.662Z,20.67
2022-11-20T07:20:07.928Z,21.63
2022-11-20T07:25:12.065Z,21.30
2022-11-20T07:30:15.422Z,19.37
2022-11-20T07:35:18.045Z,19.87
2022-11-20T07:40:20.916Z,19.10
2022-11-20T07:45:24.963Z,17.80
2022-11-20T07:50:27.349Z,17.73
2022-11-20T07:55:29.616Z,16.43
2022-11-20T08:00:32.057Z,16.60
2022-11-20T08:05:34.635Z,16.27
2022-11-20T08:10:36.916Z,16.67
2022-11-20T08:15:40.700Z,18.43
2022-11-20T08:20:43.103Z,17.33
2022-11-20T08:25:50.822Z,19.70
2022-11-20T08:30:59.684Z,18.47
2022-11-20T08:36:03.913Z,20.50
2022-11-20T08:41:28.766Z,21.60
2022-11-20T08:46:37.872Z,21.00
2022-11-20T08:51:40.840Z,22.67
2022-11-20T08:56:43.091Z,22.10
2022-11-20T09:01:45.414Z,22.83
2022-11-20T09:06:51.700Z,22.70
2022-11-20T09:11:54.413Z,22.10
2022-11-20T09:16:57.864Z,22.33
2022-11-20T09:22:00.955Z,21.83
2022-11-20T09:27:05.335Z,22.83
2022-11-20T09:32:07.589Z,22.83
2022-11-20T09:37:09.848Z,21.53
2022-11-20T09:42:27.174Z,22.77
2022-11-20T09:47:55.728Z,22.63
2022-11-20T09:53:04.744Z,22.07
2022-11-20T09:58:13.912Z,23.17
2022-11-20T10:03:23.249Z,23.60
2022-11-20T10:08:32.736Z,22.23
2022-11-20T10:14:04.221Z,24.17
2022-11-20T10:19:41.432Z,23.53
2022-11-20T10:25:08.307Z,22.80
2022-11-20T10:30:14.298Z,23.47
2022-11-20T10:35:34.407Z,22.47
2022-11-20T10:40:41.898Z,25.53
2022-11-20T10:46:09.692Z,25.50
2022-11-20T10:51:38.173Z,24.23
2022-11-20T10:56:49.930Z,21.57
2022-11-20T11:01:52.755Z,23.90
2022-11-20T11:07:05.523Z,23.47
2022-11-20T11:12:12.283Z,20.40
2022-11-20T11:17:29.653Z,21.83
2022-11-20T11:22:35.417Z,21.13
2022-11-20T11:27:50.182Z,21.13
2022-11-20T11:33:04.183Z,21.80
2022-11-20T11:38:13.078Z,21.57
2022-11-20T11:43:43.374Z,21.67
2022-11-20T11:49:22.331Z,23.63
2022-11-20T11:54:30.866Z,22.97
2022-11-20T11:59:59.203Z,23.60
2022-11-20T12:05:24.396Z,23.80
2022-11-20T12:10:38.149Z,25.97
2022-11-20T12:15:45.556Z,26.93
2022-11-20T12:21:00.236Z,28.23
2022-11-20T12:26:09.170Z,28.57
2022-11-20T12:31:34.625Z,29.40
2022-11-20T12:36:47.891Z,29.47
2022-11-20T12:42:43.402Z,31.13
2022-11-20T12:47:57.016Z,29.23
2022-11-20T12:53:07.517Z,29.07
2022-11-20T12:58:34.792Z,28.13
2022-11-20T13:04:10.647Z,28.97
2022-11-20T13:09:16.252Z,28.67
2022-11-20T13:14:38.554Z,27.97
2022-11-20T13:19:41.333Z,28.30
2022-11-20T13:24:52.858Z,26.90
2022-11-20T13:30:18.208Z,27.27
2022-11-20T13:35:32.759Z,23.93
2022-11-20T13:40:38.477Z,24.97
2022-11-20T13:45:40.709Z,20.50
2022-11-20T13:51:05.064Z,15.00
2022-11-20T13:56:24.311Z,6.43
2022-11-20T14:01:32.307Z,5.90
2022-11-20T14:06:42.961Z,3.80
2022-11-20T14:11:48.768Z,2.73
2022-11-20T14:16:54.293Z,3.23
2022-11-20T14:22:18.668Z,2.90
2022-11-20T14:27:22.224Z,3.40
2022-11-20T14:32:29.452Z,4.20
2022-11-20T14:37:37.365Z,3.30
2022-11-20T14:42:44.807Z,3.53
2022-11-20T14:47:47.735Z,2.67
2022-11-20T14:53:01.454Z,4.70
2022-11-20T14:58:25.788Z,4.03
2022-11-20T15:03:34.706Z,4.80
2022-11-20T15:08:37.716Z,4.47
2022-11-20T15:13:41.417Z,3.50
2022-11-20T15:18:44.114Z,4.53
2022-11-20T15:23:46.591Z,3.67
2022-11-20T15:28:50.930Z,1.83
2022-11-20T15:33:53.401Z,2.10
2022-11-20T15:38:55.808Z,2.03
2022-11-20T15:43:58.171Z,1.60
2022-11-20T15:49:01.502Z,1.90
2022-11-20T15:54:16.797Z,4.83
2022-11-20T15:59:19.521Z,2.10
2022-11-20T16:04:22.391Z,1.97
2022-11-20T16:09:24.944Z,1.60
2022-11-20T16:15:00.035Z,1.70
2022-11-20T16:20:02.356Z,1.80
2022-11-20T16:25:05.194Z,1.37
2022-11-20T16:30:08.393Z,1.50
2022-11-20T16:35:10.663Z,1.57
2022-11-20T16:40:13.242Z,1.90
2022-11-20T16:45:21.527Z,2.07
2022-11-20T16:50:27.576Z,1.53
2022-11-20T16:55:29.988Z,1.33
2022-11-20T17:00:32.287Z,2.00
2022-11-20T17:05:35.650Z,1.30
2022-11-20T17:10:38.019Z,2.50
2022-11-20T17:15:40.385Z,2.83
2022-11-20T17:20:42.732Z,1.73
2022-11-20T17:25:45.268Z,2.40
2022-11-20T17:30:47.899Z,2.47
2022-11-20T17:35:50.311Z,2.60
2022-11-20T17:40:53.037Z,2.33
2022-11-20T17:45:56.469Z,2.67
2022-11-20T17:51:03.800Z,3.43
2022-11-20T17:56:25.359Z,3.63
2022-11-20T18:01:27.863Z,3.13
2022-11-20T18:06:30.958Z,3.53
2022-11-20T18:11:36.283Z,4.17
2022-11-20T18:16:44.424Z,3.40
2022-11-20T18:21:46.852Z,3.27
2022-11-20T18:26:49.218Z,3.23
2022-11-20T18:31:51.540Z,3.83
2022-11-20T18:36:54.268Z,3.33
2022-11-20T18:42:15.110Z,4.30
2022-11-20T18:47:23.854Z,3.23
2022-11-20T18:52:34.806Z,3.83
2022-11-20T18:57:37.180Z,3.37
2022-11-20T19:02:42.584Z,3.30
2022-11-20T19:07:45.694Z,3.50
2022-11-20T19:12:48.271Z,3.10
2022-11-20T19:17:51.915Z,3.47
2022-11-20T19:22:54.241Z,3.33
2022-11-20T19:27:56.555Z,3.40
2022-11-20T19:32:58.833Z,3.50
2022-11-20T19:38:05.355Z,3.10
2022-11-20T19:43:08.345Z,2.87
2022-11-20T19:48:10.805Z,2.90
2022-11-20T19:53:13.569Z,2.53
2022-11-20T19:58:16.150Z,3.07
2022-11-20T20:03:18.993Z,2.80
2022-11-20T20:08:21.273Z,2.50
2022-11-20T20:13:24.058Z,2.43
2022-11-20T20:18:26.377Z,2.20
2022-11-20T20:23:28.618Z,2.37
2022-11-20T20:28:33.430Z,2.20
2022-11-20T20:33:37.505Z,2.67
2022-11-20T20:38:42.290Z,2.47
2022-11-20T20:44:04.537Z,2.53
2022-11-20T20:49:07.743Z,2.53
2022-11-20T20:54:12.097Z,2.70
2022-11-20T20:59:14.445Z,2.80
2022-11-20T21:04:16.919Z,3.23
2022-11-20T21:09:20.254Z,3.00
2022-11-20T21:14:23.058Z,3.70
2022-11-20T21:19:25.633Z,3.47
2022-11-20T21:24:29.353Z,4.13
2022-11-20T21:29:31.857Z,4.17
2022-11-20T21:34:34.762Z,4.10
2022-11-20T21:39:50.385Z,4.90
2022-11-20T21:44:52.721Z,4.73
2022-11-20T21:49:55.013Z,5.03
2022-11-20T21:54:57.276Z,4.70
2022-11-20T22:00:00.191Z,4.63
2022-11-20T22:05:02.814Z,4.13
2022-11-20T22:10:13.110Z,4.60
2022-11-20T22:15:45.819Z,4.70
2022-11-20T22:20:45.541Z,5.00
2022-11-20T22:25:47.871Z,4.27
2022-11-20T22:30:50.206Z,4.67
2022-11-20T22:35:52.688Z,4.67
2022-11-20T22:41:00.874Z,4.97
2022-11-20T22:46:15.026Z,5.23
2022-11-20T22:51:19.903Z,5.10
2022-11-20T22:56:22.682Z,4.80
2022-11-20T23:01:33.062Z,4.47
2022-11-20T23:06:35.864Z,4.67
2022-11-20T23:11:38.676Z,4.83
2022-11-20T23:16:41.885Z,4.43
2022-11-20T23:21:44.344Z,4.50
2022-11-20T23:26:47.839Z,4.57
2022-11-20T23:31:50.182Z,4.53
2022-11-20T23:36:52.453Z,4.50
2022-11-20T23:41:54.777Z,4.23
2022-11-20T23:46:57.179Z,4.40
2022-11-20T23:51:59.600Z,3.77
2022-11-20T23:57:01.965Z,4.70
